Time;durP1;ratioP1;P1;durP2;ratioP2;P2;SDS_P1;SDS_P2;PMS_P1;PMS_P2;Temp;Humidity;BMP_temperature;BMP_pressure;BME280_temperature;BME280_humidity;BME280_pressure;Samples;Min_cycle;Max_cycle;Signal;HPM_P1;HPM_P2
2021/12/12 00:01:43;;;;;;;51.80;29.17;;;12.80;76.90;;;;;;10166400;29;20303;-83
2021/12/12 00:06:55;;;;;;;47.37;27.50;;;12.90;76.50;;;;;;10165913;29;20229;-83
2021/12/12 00:12:00;;;;;;;44.87;26.77;;;12.70;76.60;;;;;;10149515;29;20810;-83
2021/12/12 00:17:08;;;;;;;47.87;26.57;;;12.80;76.60;;;;;;10150507;29;20311;-83
2021/12/12 00:22:15;;;;;;;43.90;26.63;;;12.80;76.40;;;;;;10167088;29;20251;-83
2021/12/12 00:27:21;;;;;;;49.30;27.00;;;12.90;75.90;;;;;;10166263;29;20320;-83
2021/12/12 00:32:25;;;;;;;41.53;25.00;;;13.00;75.50;;;;;;10165344;29;20305;-83
2021/12/12 00:37:28;;;;;;;43.77;25.90;;;13.10;75.10;;;;;;10148986;29;20243;-83
2021/12/12 00:42:34;;;;;;;47.03;25.73;;;13.10;74.90;;;;;;10147902;29;20254;-84
2021/12/12 00:47:37;;;;;;;42.27;24.43;;;13.10;74.60;;;;;;10165656;29;20237;-83
2021/12/12 00:52:44;;;;;;;45.60;24.83;;;13.20;74.10;;;;;;10166929;29;20241;-83
2021/12/12 00:57:51;;;;;;;42.87;25.07;;;13.10;74.20;;;;;;10151529;29;20235;-83
2021/12/12 01:02:55;;;;;;;40.83;23.57;;;12.90;74.60;;;;;;10167930;29;20240;-83
2021/12/12 01:07:58;;;;;;;42.00;24.47;;;13.00;74.10;;;;;;10168152;29;20236;-84
2021/12/12 01:13:03;;;;;;;40.27;23.40;;;12.90;74.10;;;;;;10151425;29;20697;-84
2021/12/12 01:18:12;;;;;;;41.83;23.60;;;12.50;75.10;;;;;;10168357;29;20297;-83
2021/12/12 01:23:27;;;;;;;45.50;24.53;;;11.70;77.00;;;;;;10159475;29;20311;-83
2021/12/12 01:28:32;;;;;;;48.87;24.53;;;12.40;76.40;;;;;;10175157;29;20240;-84
2021/12/12 01:33:36;;;;;;;42.97;24.97;;;12.40;75.80;;;;;;10175106;29;20283;-84
2021/12/12 01:44:01;;;;;;;41.87;23.87;;;11.20;77.40;;;;;;10174918;29;20231;-84
2021/12/12 01:49:18;;;;;;;48.00;24.47;;;11.10;79.70;;;;;;10158480;29;20296;-84
2021/12/12 01:54:26;;;;;;;38.03;23.37;;;10.80;75.90;;;;;;10174857;29;20692;-84
2021/12/12 01:59:33;;;;;;;43.33;22.93;;;11.40;80.40;;;;;;10174239;29;20265;-83
2021/12/12 02:04:43;;;;;;;44.23;23.83;;;11.80;77.40;;;;;;10157408;29;20289;-84
2021/12/12 02:09:47;;;;;;;32.20;20.53;;;10.80;79.10;;;;;;10174254;29;20241;-83
2021/12/12 02:14:50;;;;;;;35.17;21.50;;;11.40;80.30;;;;;;10173938;29;20732;-84
2021/12/12 02:40:52;;;;;;;34.50;20.87;;;11.20;77.40;;;;;;10133762;29;20712;-84
2021/12/12 02:45:56;;;;;;;34.47;19.23;;;11.40;79.60;;;;;;10133217;29;20247;-84
2021/12/12 02:51:03;;;;;;;38.60;21.83;;;11.80;78.60;;;;;;10161285;29;20299;-84
2021/12/12 02:56:19;;;;;;;31.93;19.90;;;11.70;78.10;;;;;;10172369;29;20630;-84
2021/12/12 03:01:32;;;;;;;34.37;18.47;;;11.60;78.10;;;;;;10171756;29;20646;-84
2021/12/12 03:06:36;;;;;;;41.80;22.60;;;11.80;78.60;;;;;;10171786;29;20231;-83
2021/12/12 03:11:39;;;;;;;33.60;19.07;;;11.90;76.50;;;;;;10155330;29;20679;-84
2021/12/12 03:16:42;;;;;;;33.80;19.17;;;11.70;78.20;;;;;;10155348;29;20271;-84
2021/12/12 03:21:45;;;;;;;34.53;20.23;;;12.00;77.60;;;;;;10171586;29;20256;-84
2021/12/12 03:26:50;;;;;;;38.53;22.33;;;11.80;77.90;;;;;;10171874;29;20322;-83
2021/12/12 03:32:09;;;;;;;44.23;23.63;;;11.50;74.30;;;;;;10171669;29;20238;-83
2021/12/12 03:37:15;;;;;;;38.27;19.33;;;11.50;77.80;;;;;;10171020;29;20232;-84
2021/12/12 03:42:22;;;;;;;32.67;19.13;;;11.30;78.80;;;;;;10152964;29;20311;-84
2021/12/12 03:47:29;;;;;;;29.60;17.33;;;11.20;79.20;;;;;;10170388;29;20233;-84
2021/12/12 03:52:32;;;;;;;32.73;19.60;;;10.60;81.20;;;;;;10170481;29;20238;-83
2021/12/12 03:57:36;;;;;;;33.93;18.60;;;11.50;79.30;;;;;;10170045;29;20254;-83
2021/12/12 04:02:38;;;;;;;38.00;20.00;;;11.10;78.40;;;;;;10169845;29;20309;-84
2021/12/12 04:07:42;;;;;;;33.90;18.30;;;11.40;78.90;;;;;;10152751;29;20393;-83
2021/12/12 04:12:44;;;;;;;43.53;23.07;;;11.30;79.30;;;;;;10169871;29;20772;-84
2021/12/12 04:17:47;;;;;;;33.03;18.43;;;10.50;76.20;;;;;;10169431;29;20254;-83
2021/12/12 04:22:49;;;;;;;35.90;19.37;;;10.60;81.10;;;;;;10169266;29;20304;-84
2021/12/12 04:27:53;;;;;;;32.07;16.67;;;10.20;80.80;;;;;;10152142;29;20229;-83
2021/12/12 04:32:55;;;;;;;37.93;19.57;;;10.00;83.30;;;;;;10169337;29;20245;-83
2021/12/12 04:37:59;;;;;;;29.10;17.63;;;9.90;82.10;;;;;;10169286;29;20308;-84
2021/12/12 04:43:02;;;;;;;36.40;20.23;;;10.50;83.20;;;;;;10151836;29;20260;-83
2021/12/12 04:53:41;;;;;;;41.17;22.33;;;10.10;78.30;;;;;;10166887;29;20358;-84
2021/12/12 04:59:04;;;;;;;34.37;18.43;;;10.00;80.70;;;;;;10150620;29;20307;-84
2021/12/12 05:04:14;;;;;;;48.83;25.13;;;9.80;84.90;;;;;;10167623;29;20676;-84
2021/12/12 05:09:38;;;;;;;27.53;16.93;;;10.10;83.30;;;;;;10150889;29;20258;-83
2021/12/12 05:14:47;;;;;;;38.83;18.97;;;10.40;83.70;;;;;;10167697;29;20289;-84
2021/12/12 05:19:55;;;;;;;28.00;16.47;;;10.50;81.30;;;;;;10167591;29;20810;-84
2021/12/12 05:25:01;;;;;;;40.63;21.27;;;10.20;83.70;;;;;;10167805;29;20275;-84
2021/12/12 05:30:10;;;;;;;71.43;32.50;;;10.80;81.80;;;;;;10151077;29;20272;-83
2021/12/12 05:35:16;;;;;;;60.80;27.73;;;10.80;76.80;;;;;;10157992;29;20798;-84
2021/12/12 05:40:23;;;;;;;34.67;19.40;;;10.50;71.60;;;;;;10167393;29;20305;-83
2021/12/12 05:45:28;;;;;;;30.87;16.83;;;10.40;83.00;;;;;;10147152;29;20238;-84
2021/12/12 05:50:31;;;;;;;47.90;23.47;;;10.60;81.50;;;;;;10128136;29;20262;-84
2021/12/12 05:55:35;;;;;;;38.37;21.17;;;10.30;81.00;;;;;;10128007;29;20234;-84
2021/12/12 06:00:43;;;;;;;33.73;18.63;;;11.00;81.40;;;;;;10111412;29;20791;-84
2021/12/12 06:05:46;;;;;;;27.17;16.80;;;11.00;80.60;;;;;;10113339;29;20290;-84
2021/12/12 06:10:49;;;;;;;39.17;19.33;;;11.10;80.60;;;;;;10134796;29;20700;-83
2021/12/12 06:15:54;;;;;;;42.23;21.30;;;10.60;80.10;;;;;;10117836;29;20644;-83
2021/12/12 06:20:57;;;;;;;30.80;16.97;;;10.40;80.50;;;;;;10134637;29;20255;-83
2021/12/12 06:26:02;;;;;;;28.97;16.77;;;10.20;82.30;;;;;;10162575;29;20658;-83
2021/12/12 06:31:06;;;;;;;36.97;18.33;;;10.10;82.90;;;;;;10172609;29;20230;-84
2021/12/12 06:36:10;;;;;;;30.37;16.73;;;10.20;83.30;;;;;;10172927;29;20309;-83
2021/12/12 06:41:14;;;;;;;43.37;21.53;;;10.20;83.20;;;;;;10173030;29;20253;-84
2021/12/12 06:46:18;;;;;;;71.40;29.63;;;10.30;80.70;;;;;;10156186;29;20236;-84
2021/12/12 06:51:21;;;;;;;31.13;17.13;;;9.40;76.40;;;;;;10173143;29;20250;-83
2021/12/12 06:56:26;;;;;;;38.97;21.00;;;9.60;85.10;;;;;;10155568;29;20697;-83
2021/12/12 07:01:33;;;;;;;54.37;25.60;;;10.10;82.80;;;;;;10155759;29;20646;-83
2021/12/12 07:06:37;;;;;;;62.57;31.13;;;9.50;82.00;;;;;;10154442;29;20210;-84
2021/12/12 07:11:40;;;;;;;34.87;17.97;;;9.10;78.20;;;;;;10171787;29;20237;-83
2021/12/12 07:16:44;;;;;;;53.60;23.23;;;9.50;85.20;;;;;;10171440;29;20668;-83
2021/12/12 07:21:55;;;;;;;49.37;23.23;;;10.10;84.50;;;;;;10171742;29;20688;-84
2021/12/12 07:27:01;;;;;;;38.63;19.87;;;9.90;82.80;;;;;;10171288;29;20312;-84
2021/12/12 07:32:04;;;;;;;29.87;17.77;;;9.50;84.50;;;;;;10152633;29;20600;-83
2021/12/12 07:37:08;;;;;;;32.60;18.40;;;9.60;85.30;;;;;;10152871;29;20244;-84
2021/12/12 07:42:12;;;;;;;38.57;19.80;;;9.90;83.50;;;;;;10169468;29;20286;-84
2021/12/12 07:47:17;;;;;;;61.80;29.67;;;9.40;83.40;;;;;;10169283;29;20236;-83
2021/12/12 07:52:25;;;;;;;39.83;20.07;;;9.40;84.40;;;;;;10170305;29;20250;-83
2021/12/12 07:57:28;;;;;;;58.97;29.40;;;8.90;84.90;;;;;;10170405;29;20279;-83
2021/12/12 08:02:31;;;;;;;48.00;25.47;;;9.20;83.90;;;;;;10169279;29;20260;-83
2021/12/12 08:07:36;;;;;;;27.20;15.83;;;9.00;86.70;;;;;;10169747;29;20605;-83
2021/12/12 08:12:41;;;;;;;31.13;17.63;;;9.70;86.80;;;;;;10169005;29;20233;-84
2021/12/12 08:17:50;;;;;;;44.47;22.67;;;10.60;83.40;;;;;;10151820;29;20292;-83
2021/12/12 08:22:53;;;;;;;51.40;25.13;;;11.20;78.60;;;;;;10169170;29;20721;-83
2021/12/12 08:28:00;;;;;;;28.63;15.97;;;10.80;76.00;;;;;;10168943;29;20277;-83
2021/12/12 08:33:05;;;;;;;28.00;16.97;;;11.20;80.90;;;;;;10168197;29;20639;-83
2021/12/12 08:38:09;;;;;;;30.97;17.00;;;11.70;78.60;;;;;;10169111;29;20808;-83
2021/12/12 08:43:14;;;;;;;29.13;17.07;;;12.10;77.70;;;;;;10168238;29;20249;-84
2021/12/12 08:48:18;;;;;;;26.30;15.70;;;12.70;75.60;;;;;;10168542;29;20234;-83
2021/12/12 08:53:21;;;;;;;41.43;19.70;;;12.70;75.00;;;;;;10168395;29;20293;-83
2021/12/12 08:58:29;;;;;;;25.07;15.53;;;12.20;74.60;;;;;;10150375;29;20281;-83
2021/12/12 09:03:37;;;;;;;31.63;17.53;;;12.10;76.40;;;;;;10165169;29;20274;-83
2021/12/12 09:08:49;;;;;;;29.27;15.47;;;12.60;75.00;;;;;;10145103;29;20676;-83
2021/12/12 09:14:01;;;;;;;28.50;16.40;;;13.00;73.50;;;;;;10150369;29;20273;-83
2021/12/12 09:19:10;;;;;;;30.30;16.53;;;13.00;73.20;;;;;;10149870;29;20267;-83
2021/12/12 09:24:30;;;;;;;37.93;20.40;;;13.00;72.80;;;;;;10139263;29;20318;-82
2021/12/12 09:29:39;;;;;;;32.03;16.73;;;12.60;71.70;;;;;;10125850;29;20684;-82
2021/12/12 09:34:55;;;;;;;27.33;16.10;;;12.70;73.70;;;;;;10134378;29;20293;-83
2021/12/12 09:40:11;;;;;;;55.57;27.97;;;12.70;73.30;;;;;;10114020;29;20293;-84
2021/12/12 09:45:52;;;;;;;28.97;16.30;;;12.30;69.10;;;;;;10135754;29;20219;-83
2021/12/12 09:51:33;;;;;;;29.23;16.97;;;11.80;75.70;;;;;;10134469;29;20274;-83
2021/12/12 09:57:09;;;;;;;27.20;16.90;;;12.20;75.00;;;;;;10118743;29;20765;-84
2021/12/12 10:02:37;;;;;;;27.67;16.37;;;12.60;73.90;;;;;;10118144;29;20261;-84
2021/12/12 10:07:54;;;;;;;26.77;14.93;;;12.80;73.30;;;;;;10104718;29;20700;-83
2021/12/12 10:13:12;;;;;;;25.27;15.60;;;13.00;72.60;;;;;;10120755;29;20234;-83
2021/12/12 10:18:24;;;;;;;28.23;16.30;;;13.00;72.50;;;;;;10117751;29;20274;-83
2021/12/12 10:23:41;;;;;;;26.80;16.03;;;12.90;72.60;;;;;;10142728;29;20679;-83
2021/12/12 10:28:52;;;;;;;31.10;18.03;;;12.50;73.50;;;;;;10150048;29;20230;-83
2021/12/12 10:34:07;;;;;;;75.60;37.73;;;12.70;73.20;;;;;;10156025;29;20243;-83
2021/12/12 10:39:22;;;;;;;33.43;17.70;;;5.20;79.30;;;;;;10172505;29;20260;-83
2021/12/12 10:44:34;;;;;;;30.60;16.83;;;8.60;92.90;;;;;;10156092;29;20251;-83
2021/12/12 10:50:04;;;;;;;29.17;16.93;;;11.70;82.00;;;;;;10155982;29;20307;-83
2021/12/12 10:55:20;;;;;;;35.57;19.93;;;12.00;79.60;;;;;;10172406;29;20292;-83
2021/12/12 11:00:28;;;;;;;27.50;15.10;;;12.10;77.90;;;;;;10172132;29;20241;-83
2021/12/12 11:05:38;;;;;;;27.17;15.73;;;12.10;77.90;;;;;;10170235;29;20247;-83
2021/12/12 11:10:44;;;;;;;43.50;24.67;;;12.20;77.20;;;;;;10171657;29;20232;-83
2021/12/12 11:15:50;;;;;;;63.40;31.07;;;11.60;76.40;;;;;;10154654;29;20243;-83
2021/12/12 11:21:13;;;;;;;34.50;19.13;;;11.70;77.40;;;;;;10154663;29;20243;-83
2021/12/12 11:26:21;;;;;;;29.57;17.07;;;11.90;77.90;;;;;;10138537;29;20230;-82
2021/12/12 11:31:38;;;;;;;40.13;21.73;;;11.80;78.30;;;;;;10171149;29;20233;-83
2021/12/12 11:37:14;;;;;;;45.27;25.13;;;11.70;78.50;;;;;;10170702;29;20692;-82
2021/12/12 11:42:16;;;;;;;27.60;15.33;;;11.20;79.10;;;;;;10152572;29;20261;-83
2021/12/12 11:47:53;;;;;;;26.33;15.37;;;11.40;79.70;;;;;;10191340;29;20237;-83
2021/12/12 11:53:30;;;;;;;37.87;21.60;;;11.70;78.60;;;;;;9798359;29;10000790;-82
2021/12/12 11:58:38;;;;;;;25.57;15.60;;;12.10;77.00;;;;;;10138551;29;20268;-83
2021/12/12 12:04:00;;;;;;;25.23;15.33;;;12.20;76.90;;;;;;10163056;29;20262;-83
2021/12/12 12:09:07;;;;;;;28.13;17.87;;;12.10;76.90;;;;;;10148284;29;20241;-82
2021/12/12 12:14:21;;;;;;;27.77;16.47;;;12.60;76.00;;;;;;10166500;29;20241;-82
2021/12/12 12:19:47;;;;;;;26.50;16.10;;;12.70;75.10;;;;;;10151222;29;20298;-83
2021/12/12 12:24:58;;;;;;;25.67;15.83;;;12.70;74.70;;;;;;10150609;29;20264;-83
2021/12/12 12:30:01;;;;;;;35.73;18.17;;;12.80;74.50;;;;;;10167942;29;20351;-83
2021/12/12 12:35:19;;;;;;;37.53;18.53;;;12.60;74.40;;;;;;10150234;29;20773;-83
2021/12/12 12:40:36;;;;;;;26.67;15.60;;;12.40;75.20;;;;;;10098319;29;84149;-83
2021/12/12 12:46:16;;;;;;;28.77;17.07;;;12.10;76.20;;;;;;10099789;29;20256;-83
2021/12/12 12:51:26;;;;;;;27.40;15.80;;;12.30;75.80;;;;;;10091939;29;20247;-83
2021/12/12 12:57:09;;;;;;;65.63;29.87;;;12.30;75.70;;;;;;10089171;29;20243;-82
2021/12/12 13:02:16;;;;;;;28.00;17.20;;;12.10;71.50;;;;;;10116769;29;20259;-83
2021/12/12 13:08:10;;;;;;;32.77;18.73;;;11.40;78.50;;;;;;10096850;29;20835;-83
2021/12/12 13:13:28;;;;;;;39.30;19.73;;;10.40;77.60;;;;;;10115892;29;20229;-83
2021/12/12 13:18:47;;;;;;;32.13;17.53;;;10.10;85.30;;;;;;10125457;29;20242;-83
2021/12/12 13:24:12;;;;;;;48.27;24.40;;;10.70;82.40;;;;;;10119809;29;20266;-83
2021/12/12 13:29:31;;;;;;;29.40;17.67;;;10.90;76.90;;;;;;10123327;29;20692;-83
2021/12/12 13:35:00;;;;;;;42.57;24.67;;;10.90;81.70;;;;;;10148230;29;20728;-83
2021/12/12 13:40:36;;;;;;;43.43;23.47;;;10.60;81.60;;;;;;10119455;29;20262;-83
2021/12/12 13:46:09;;;;;;;74.70;37.43;;;11.10;75.50;;;;;;10145071;29;20283;-84
2021/12/12 13:51:30;;;;;;;25.70;16.53;;;10.30;74.00;;;;;;10136138;29;20295;-83
2021/12/12 13:56:51;;;;;;;87.33;44.07;;;10.50;82.90;;;;;;10152287;29;20258;-84
2021/12/12 14:02:09;;;;;;;40.37;20.40;;;10.40;76.20;;;;;;10174258;29;20322;-83
2021/12/12 14:07:14;;;;;;;38.37;19.50;;;10.50;82.40;;;;;;10150502;29;20224;-83
2021/12/12 14:12:18;;;;;;;43.00;22.30;;;10.80;81.00;;;;;;10134486;29;20238;-83
2021/12/12 14:17:27;;;;;;;34.10;20.50;;;10.40;81.80;;;;;;10097093;29;20299;-83
2021/12/12 14:22:29;;;;;;;38.90;21.53;;;10.60;80.80;;;;;;10100846;29;20263;-83
2021/12/12 14:27:34;;;;;;;33.70;18.67;;;10.60;81.70;;;;;;10133564;29;20252;-83
2021/12/12 14:32:51;;;;;;;29.90;19.13;;;11.00;81.10;;;;;;10117541;29;20632;-83
2021/12/12 14:37:56;;;;;;;102.23;45.17;;;11.20;80.70;;;;;;10117886;29;20231;-83
2021/12/12 14:43:10;;;;;;;46.30;23.80;;;5.70;78.30;;;;;;10152957;29;20314;-83
2021/12/12 14:48:17;;;;;;;38.27;21.63;;;7.40;99.90;;;;;;10172498;29;20235;-83
2021/12/12 14:53:24;;;;;;;35.83;21.83;;;9.30;93.20;;;;;;10142193;29;20240;-83
2021/12/12 14:58:31;;;;;;;34.97;20.43;;;10.50;89.60;;;;;;10133539;29;20246;-83
2021/12/12 15:03:38;;;;;;;37.13;20.07;;;11.30;85.10;;;;;;10132743;29;20265;-83
2021/12/12 15:08:46;;;;;;;33.77;18.70;;;11.40;83.00;;;;;;10127395;29;20240;-84
2021/12/12 15:13:50;;;;;;;49.30;26.37;;;11.40;82.70;;;;;;10148044;29;20246;-83
2021/12/12 15:18:53;;;;;;;45.70;24.00;;;11.10;80.80;;;;;;10155144;29;20309;-83
2021/12/12 15:24:01;;;;;;;38.47;21.03;;;11.10;82.80;;;;;;10148804;29;20272;-83
2021/12/12 15:29:07;;;;;;;49.87;26.80;;;11.30;82.10;;;;;;10131261;29;20291;-83
2021/12/12 15:34:12;;;;;;;41.60;21.53;;;10.70;79.20;;;;;;10115618;29;20249;-83
2021/12/12 15:39:22;;;;;;;38.57;22.13;;;11.10;80.80;;;;;;10142805;29;20617;-83
2021/12/12 15:44:30;;;;;;;33.97;19.63;;;10.30;83.20;;;;;;10128880;29;20291;-82
2021/12/12 15:49:44;;;;;;;39.00;22.33;;;10.60;83.00;;;;;;10132172;29;20237;-82
2021/12/12 15:54:48;;;;;;;41.43;23.90;;;10.70;83.80;;;;;;10132935;29;20731;-83
2021/12/12 15:59:56;;;;;;;36.27;22.37;;;10.70;83.40;;;;;;10115218;29;20246;-82
2021/12/12 16:05:07;;;;;;;38.67;22.83;;;10.80;83.30;;;;;;10115037;29;20647;-83
2021/12/12 16:10:15;;;;;;;32.60;19.43;;;10.90;83.00;;;;;;10113860;29;20231;-83
2021/12/12 16:15:20;;;;;;;33.43;19.40;;;11.00;82.50;;;;;;10104403;29;20271;-83
2021/12/12 16:20:31;;;;;;;64.40;32.33;;;10.80;82.90;;;;;;10120397;29;21076;-83
2021/12/12 16:25:39;;;;;;;47.60;27.27;;;10.40;77.00;;;;;;10130922;29;20718;-83
2021/12/12 16:31:07;;;;;;;59.00;32.30;;;10.40;79.80;;;;;;10129704;29;20683;-83
2021/12/12 16:36:22;;;;;;;33.10;19.40;;;9.30;79.80;;;;;;10129604;29;20269;-83
2021/12/12 16:41:28;;;;;;;34.17;20.87;;;9.80;86.40;;;;;;10112739;29;20245;-83
2021/12/12 16:46:41;;;;;;;32.93;20.47;;;10.50;84.50;;;;;;10133643;29;20246;-83
2021/12/12 16:51:53;;;;;;;30.03;17.90;;;10.60;83.00;;;;;;10140499;29;20752;-83
2021/12/12 16:56:59;;;;;;;33.17;19.07;;;10.80;83.00;;;;;;10129111;29;20637;-83
2021/12/12 17:02:05;;;;;;;34.87;20.73;;;11.10;82.10;;;;;;10127237;29;20286;-83
2021/12/12 17:07:15;;;;;;;57.90;30.53;;;11.00;81.80;;;;;;10128533;29;20683;-83
2021/12/12 17:12:26;;;;;;;46.30;26.03;;;11.00;80.30;;;;;;10128977;29;20234;-83
2021/12/12 17:17:31;;;;;;;44.93;22.57;;;10.90;80.10;;;;;;10153241;29;20247;-82
2021/12/12 17:22:34;;;;;;;39.17;22.13;;;10.70;79.80;;;;;;10128400;29;20258;-82
2021/12/12 17:27:39;;;;;;;32.90;17.93;;;10.70;82.00;;;;;;10150200;29;20627;-83
2021/12/12 17:32:53;;;;;;;107.70;55.07;;;10.90;82.00;;;;;;10141473;29;20231;-82
2021/12/12 17:37:58;;;;;;;120.80;58.53;;;-1.00;99.90;;;;;;10154230;29;20240;-82
2021/12/12 17:43:10;;;;;;;47.67;25.63;;;-1.20;99.90;;;;;;10112197;29;20323;-82
2021/12/12 17:48:46;;;;;;;49.20;24.90;;;2.10;99.90;;;;;;10101331;29;20682;-82
2021/12/12 17:54:00;;;;;;;39.70;22.53;;;5.90;99.90;;;;;;10112105;29;20248;-83
2021/12/12 17:59:18;;;;;;;48.53;24.73;;;8.50;99.90;;;;;;10143126;29;20207;-81
2021/12/12 18:04:22;;;;;;;86.87;42.60;;;7.40;99.90;;;;;;10094492;29;20265;-82
2021/12/12 18:09:40;;;;;;;97.40;46.07;;;5.40;99.90;;;;;;10119412;29;20640;-82
2021/12/12 18:14:47;;;;;;;90.17;44.07;;;7.90;93.40;;;;;;10117562;29;20284;-83
2021/12/12 18:20:26;;;;;;;87.03;42.33;;;7.30;96.90;;;;;;10132603;29;20236;-83
2021/12/12 18:25:36;;;;;;;81.43;41.67;;;8.40;92.40;;;;;;10132825;29;20320;-83
2021/12/12 18:30:45;;;;;;;85.70;41.77;;;9.30;89.00;;;;;;10113956;29;20232;-82
2021/12/12 18:35:53;;;;;;;85.07;41.43;;;9.80;85.30;;;;;;10125586;29;20266;-82
2021/12/12 18:41:04;;;;;;;83.83;40.20;;;9.80;83.80;;;;;;10106298;29;20233;-82
2021/12/12 18:46:18;;;;;;;78.33;40.40;;;9.80;84.00;;;;;;10134956;29;20256;-83
2021/12/12 18:51:22;;;;;;;87.47;43.13;;;10.10;83.30;;;;;;10117135;29;20230;-83
2021/12/12 18:56:33;;;;;;;83.40;41.10;;;10.20;81.20;;;;;;10114453;29;20241;-83
2021/12/12 19:01:44;;;;;;;92.73;47.73;;;10.30;81.60;;;;;;10131554;29;20694;-82
2021/12/12 19:06:48;;;;;;;78.33;40.90;;;10.00;81.80;;;;;;10141302;29;20701;-83
2021/12/12 19:11:50;;;;;;;71.77;38.23;;;9.60;83.20;;;;;;10115248;29;20325;-83
2021/12/12 19:16:57;;;;;;;84.93;43.23;;;9.80;83.50;;;;;;10148739;29;20229;-83
2021/12/12 19:22:15;;;;;;;73.73;36.73;;;9.70;83.60;;;;;;10113729;29;20310;-83
2021/12/12 19:27:24;;;;;;;65.33;34.67;;;10.30;82.80;;;;;;10112696;29;20779;-83
2021/12/12 19:32:33;;;;;;;65.73;33.53;;;10.50;82.00;;;;;;10127481;29;20237;-83
2021/12/12 19:37:42;;;;;;;65.77;35.60;;;10.70;81.10;;;;;;10122434;29;20246;-83
2021/12/12 19:42:49;;;;;;;69.67;39.30;;;10.20;81.50;;;;;;10135702;29;20247;-83
2021/12/12 19:47:52;;;;;;;70.97;35.77;;;10.30;81.90;;;;;;10131349;29;20300;-83
2021/12/12 19:52:56;;;;;;;63.33;34.43;;;10.20;82.00;;;;;;10128849;29;20269;-83
2021/12/12 19:58:10;;;;;;;66.23;35.23;;;10.10;82.90;;;;;;10149258;29;20249;-83
2021/12/12 20:03:20;;;;;;;71.90;36.97;;;10.10;82.40;;;;;;10125007;29;20273;-83
2021/12/12 20:08:28;;;;;;;68.73;40.63;;;9.90;83.20;;;;;;10127503;29;20243;-83
2021/12/12 20:13:35;;;;;;;67.23;34.17;;;10.00;75.30;;;;;;10126481;29;20246;-83
2021/12/12 20:18:42;;;;;;;61.50;32.30;;;10.50;83.20;;;;;;10123677;29;20296;-82
2021/12/12 20:23:46;;;;;;;54.17;32.13;;;10.90;81.60;;;;;;10123949;29;20266;-83
2021/12/12 20:28:53;;;;;;;64.30;33.00;;;10.90;80.50;;;;;;10122627;29;20227;-83
2021/12/12 20:33:57;;;;;;;61.60;35.73;;;10.90;80.50;;;;;;10126021;29;20314;-82
2021/12/12 20:51:40;;;;;;;61.07;33.70;;;10.90;83.40;;;;;;9850841;23;9999634;-95
2021/12/12 20:56:48;;;;;;;62.33;34.80;;;11.30;81.30;;;;;;10138749;29;20230;-96
2021/12/12 21:01:56;;;;;;;55.60;32.57;;;11.40;80.30;;;;;;10197195;29;20263;-95
2021/12/12 21:07:05;;;;;;;57.73;32.53;;;11.20;80.70;;;;;;10167878;29;20217;-95
2021/12/12 21:12:13;;;;;;;55.40;33.37;;;11.10;80.80;;;;;;10150827;29;20217;-94
2021/12/12 21:17:19;;;;;;;58.77;35.43;;;11.10;80.80;;;;;;10162247;29;20215;-95
2021/12/12 21:22:40;;;;;;;58.33;33.13;;;11.20;80.10;;;;;;10145942;29;20269;-93
2021/12/12 21:27:44;;;;;;;59.87;32.80;;;11.20;80.20;;;;;;10160221;29;20218;-94
2021/12/12 21:32:50;;;;;;;65.40;35.23;;;11.40;79.70;;;;;;10145906;29;20210;-94
2021/12/12 21:38:02;;;;;;;73.53;40.33;;;11.20;79.90;;;;;;10167184;29;20207;-95
2021/12/12 21:43:18;;;;;;;56.60;33.17;;;10.90;79.40;;;;;;10161923;29;20221;-95
2021/12/12 21:48:25;;;;;;;63.40;32.40;;;10.80;80.10;;;;;;10187103;29;20215;-94
2021/12/12 21:53:32;;;;;;;59.73;33.80;;;10.80;80.80;;;;;;10155386;29;20242;-94
2021/12/12 22:05:05;;;;;;;65.83;33.43;;;10.40;81.70;;;;;;10180393;29;20238;-94
2021/12/12 22:10:15;;;;;;;59.20;33.13;;;10.30;82.90;;;;;;10177180;29;20212;-95
2021/12/12 22:15:18;;;;;;;58.63;32.97;;;10.40;82.40;;;;;;10194147;29;20225;-95
2021/12/12 22:20:31;;;;;;;54.33;31.93;;;10.60;82.10;;;;;;10170751;29;20235;-96
2021/12/12 22:25:45;;;;;;;61.80;33.03;;;10.50;81.70;;;;;;10142696;29;20282;-96
2021/12/12 22:30:49;;;;;;;52.43;30.37;;;10.40;82.80;;;;;;10168180;29;20209;-96
2021/12/12 22:36:01;;;;;;;52.50;30.03;;;10.80;81.70;;;;;;10180844;29;20216;-94
2021/12/12 22:41:09;;;;;;;66.10;37.87;;;11.00;80.80;;;;;;10179887;29;20190;-95
2021/12/12 22:46:15;;;;;;;51.17;28.57;;;11.10;80.20;;;;;;10178477;29;20230;-95
2021/12/12 22:51:29;;;;;;;60.20;34.40;;;10.90;80.40;;;;;;10179607;29;20260;-95
2021/12/12 22:56:47;;;;;;;56.30;30.87;;;11.10;80.10;;;;;;10175959;29;20650;-95
2021/12/12 23:02:17;;;;;;;50.20;29.93;;;11.20;80.00;;;;;;10166117;29;20215;-96
2021/12/12 23:07:22;;;;;;;51.80;30.33;;;11.40;79.30;;;;;;10157647;29;20241;-95
2021/12/12 23:12:41;;;;;;;48.50;28.47;;;11.40;78.80;;;;;;10172851;29;20213;-93
2021/12/12 23:18:21;;;;;;;55.07;32.27;;;11.20;79.20;;;;;;10169701;29;20245;-93
2021/12/12 23:23:37;;;;;;;53.67;31.60;;;11.10;79.10;;;;;;10165491;29;20214;-95
2021/12/12 23:34:07;;;;;;;56.03;29.30;;;10.70;77.90;;;;;;10202005;29;20740;-94
2021/12/12 23:39:17;;;;;;;47.23;28.57;;;11.00;80.20;;;;;;10156047;29;20218;-96
2021/12/12 23:44:46;;;;;;;86.57;44.30;;;10.90;80.00;;;;;;10163148;29;20696;-96
2021/12/12 23:49:51;;;;;;;52.53;29.87;;;11.10;77.90;;;;;;10150432;29;20206;-95
2021/12/12 23:55:02;;;;;;;52.00;29.97;;;11.00;79.70;;;;;;10160409;29;20242;-95
